Station:ALEXANDRIA INTL APState:LAID:KAEX
Latitude:31.33°NLongitude:-92.56°WElevation:84 feet
Station period of record:1948-01-01 ~ 2018-03-21,         1948-01-01 ~ 2018-03-21,         1948-01-01 ~ 2018-03-21,         ,         1948-01-01 ~ 2018-03-21,         1948-01-01 ~ 2018-03-21,         1948-01-01 ~ 2018-03-21,         ,         1948-01-01 ~ 2018-03-20,         1948-01-01 ~ 2018-03-20

SRCC F6 Daily Data

Temperature Precipitation Wind(kts)
Day Max Min Avg DFN Dpt Rel Hum HDD CDD Water Equiv DFN Snow Ice Snow Depth Avg Spd Res Spd Res Dir Peak Gust Obs
2017-12-01 73 42 58 5 47 76 7 0 0.00 -0.29 0.0 0 1.6 2.4 320 M 10
2017-12-02 76 41 58 6 48 75 6 0 0.00 -0.28 0.0 0 1.4 3.3 132 M 10
2017-12-03 68 44 56 4 53 89 9 0 0.00 -0.24 0.0 0 3.4 4.8 138 M 16
2017-12-04 79 57 68 16 62 85 0 3 T -0.24 0.0 0 8.2 7.9 149 M 24
2017-12-05 74 47 60 9 54 83 4 0 0.75 0.50 None 0 8.4 2.9 9 19 24
2017-12-06 47 40 44 -8 36 78 21 0 0.04 -0.21 None 0 4.7 3.7 5 M 23
2017-12-07 51 39 45 -6 36 71 20 0 T -0.25 T 0 6.0 6.2 0 21 22
2017-12-08 41 29 35 -16 30 84 30 0 T -0.24 2.1 0 5.0 5.3 333 M 21
2017-12-09 56 25 40 -10 30 72 24 0 0.00 -0.26 0.0 0 3.7 5.9 294 M 13
2017-12-10 61 27 44 -7 33 71 21 0 0.00 -0.26 None 0 2.2 2.3 256 M 13
2017-12-11 72 33 52 2 37 64 12 0 0.00 -0.19 0.0 0 3.3 4.1 244 M 16
2017-12-12 60 34 47 -4 33 59 18 0 0.00 -0.18 0.0 0 5.9 6.7 326 17 20
2017-12-13 59 29 44 -6 30 65 21 0 0.00 -0.18 0.0 0 3.6 6.2 205 M 13
2017-12-14 55 34 44 -6 38 78 20 0 0.00 -0.17 0.0 0 1.3 2.7 354 M 9
2017-12-15 51 34 42 -8 31 65 22 0 0.00 -0.19 0.0 0 3.5 6.0 18 M 13
2017-12-16 58 30 44 -6 34 67 21 0 0.00 -0.21 0.0 0 5.4 6.5 112 M 18
2017-12-17 57 47 52 2 50 97 13 0 0.35 0.14 None 0 3.3 1.6 8 26 16
2017-12-18 63 52 58 8 56 95 7 0 T -0.21 0.0 0 1.6 1.2 69 M 16
2017-12-19 74 59 66 17 64 94 0 2 0.01 -0.17 0.0 0 6.1 5.7 156 M 22
2017-12-20 71 51 61 11 59 87 4 0 0.34 0.17 0.0 0 5.7 5.2 254 19 20
2017-12-21 76 46 61 11 58 88 4 0 0.00 -0.16 0.0 0 5.8 5.4 164 M 23
2017-12-22 80 69 74 25 67 83 0 10 T -0.16 0.0 0 10.5 10.3 178 22 24
2017-12-23 73 44 58 9 42 83 6 0 0.22 0.06 None 0 9.4 8.5 314 33 24
2017-12-24 55 38 46 -3 40 80 18 0 0.00 -0.16 0.0 0 5.7 3.4 331 19 22
2017-12-25 48 32 40 -10 25 60 25 0 0.00 -0.17 0.0 0 6.5 5.2 55 M 24
2017-12-26 43 36 40 -10 36 86 25 0 0.46 0.29 None 0 6.1 6.3 45 19 22
2017-12-27 40 34 37 -12 32 83 28 0 0.03 -0.13 None 0 8.5 7.5 19 18 24
2017-12-28 41 32 36 -13 25 65 28 0 T -0.15 None 0 5.9 5.5 23 M 24
2017-12-29 49 31 40 -9 28 61 25 0 0.00 -0.12 0.0 0 3.8 2.0 101 M 18
2017-12-30 50 42 46 -3 38 73 19 0 0.12 -0.01 None 0 0.0 M M M 0
2017-12-31 42 25 34 -16 14 53 31 0 0.01 -0.12 None 0 11.4 11.3 10 20 6
Ag/Sum 59.5 39.5 49.45 489 15 2.33
Norm 60.4 40.3 50.40 464 10 6.12
DFN -0.9 -0.8 -0.95 25 5 -3.79
Temperature Data Precipitation Data
AVERAGE MONTHLY 49.45 TOTAL FOR THE MONTH 2.33
DEPARTURE FROM NORMAL -0.95 DEPARTURE FROM NORMAL -3.79
HIGHEST 80 ON 2017-12-22 GREATEST 24HR TOTAL 0.75
LOWEST 25 ON 2017-12-31 NUMBER OF DAYS WITH
NUMBER OF DAYS WITH - 0.01 INCH OR MORE PRECIP 10
MAX 32 OR BELOW 0 - 0.10 INCH OR MORE PRECIP 6
MAX 90 OR ABOVE 0 - 0.50 INCH OR MORE PRECIP 1
MIN 32 OR BELOW 9 - 1.00 INCH OR MORE PRECIP 0
MIN 0 OR BELOW 0
HEATING DEGREE DAYS(BASE 65)
TOTAL THIS MONTH 489
DEPARTURE FROM NORMAL 5
COOLING DEGREE DAYS(BASE 65)
TOTAL THIS MONTH 15
DEPARTURE FROM NORMAL 5

Data provided by the Southern Regional Climate Center

2018-03-22 17:23:10.334572